createdAt,value
2022-11-14T00:05:00.240Z,4.3
2022-11-14T00:10:52.768Z,4.2
2022-11-14T00:16:43.185Z,4.1
2022-11-14T00:22:33.863Z,3.9
2022-11-14T00:28:25.546Z,3.9
2022-11-14T00:34:17.922Z,4
2022-11-14T00:40:10.100Z,3.9
2022-11-14T00:46:00.875Z,4
2022-11-14T00:51:52.503Z,3.9
2022-11-14T00:57:43.009Z,3.6
2022-11-14T01:03:34.005Z,3.9
2022-11-14T01:09:25.146Z,3.8
2022-11-14T01:15:17.006Z,3.9
2022-11-14T01:21:10.447Z,3.8
2022-11-14T01:27:01.240Z,3.8
2022-11-14T01:32:52.875Z,4.1
2022-11-14T01:38:43.265Z,4
2022-11-14T01:44:34.234Z,3.9
2022-11-14T01:50:25.265Z,3.9
2022-11-14T01:56:21.899Z,3.5
2022-11-14T02:02:14.381Z,3.9
2022-11-14T02:08:05.750Z,4.1
2022-11-14T02:13:56.482Z,4
2022-11-14T02:19:46.534Z,3.8
2022-11-14T02:25:38.112Z,3.7
2022-11-14T02:31:29.235Z,3.5
2022-11-14T02:37:20.358Z,3.7
2022-11-14T02:43:12.821Z,3.6
2022-11-14T02:49:03.386Z,3.6
2022-11-14T02:54:56.343Z,3.4
2022-11-14T03:01:06.176Z,3.5
2022-11-14T03:07:07.966Z,3.5
2022-11-14T03:12:57.278Z,3.3
2022-11-14T03:18:46.489Z,3.3
2022-11-14T03:24:37.158Z,3.4
2022-11-14T03:30:28.381Z,3.4
2022-11-14T03:36:19.076Z,3.2
2022-11-14T03:42:10.655Z,3.3
2022-11-14T03:48:02.037Z,3.1
2022-11-14T03:53:53.046Z,3
2022-11-14T03:59:55.547Z,3.1
2022-11-14T04:05:55.950Z,3.1
2022-11-14T04:11:51.190Z,3.1
2022-11-14T04:18:05.418Z,3.2
2022-11-14T04:24:18.212Z,3
2022-11-14T04:36:25.450Z,2.7
2022-11-14T04:42:43.026Z,2.8
2022-11-14T04:48:34.709Z,2.8
2022-11-14T04:54:32.204Z,3.1
2022-11-14T05:00:30.775Z,3.3
2022-11-14T05:06:24.499Z,3.4
2022-11-14T05:12:20.546Z,3.3
2022-11-14T05:18:15.096Z,3.5
2022-11-14T05:24:06.631Z,3.7
2022-11-14T05:30:00.006Z,3.5
2022-11-14T05:35:53.472Z,3.7
2022-11-14T05:41:49.169Z,3.8
2022-11-14T05:47:43.258Z,3.8
2022-11-14T05:53:39.271Z,4
2022-11-14T05:59:33.388Z,4.1
2022-11-14T06:05:25.197Z,4.2
2022-11-14T06:11:26.446Z,4.3
2022-11-14T06:17:19.797Z,4.4
2022-11-14T06:23:11.937Z,4.5
2022-11-14T06:29:11.695Z,4.7
2022-11-14T06:35:02.826Z,4.7
2022-11-14T06:40:55.835Z,4.7
2022-11-14T06:46:49.544Z,4.8
2022-11-14T06:52:41.969Z,4.9
2022-11-14T06:58:38.080Z,5
2022-11-14T07:04:28.779Z,5.1
2022-11-14T07:10:20.540Z,5.3
2022-11-14T07:16:12.165Z,5.4
2022-11-14T07:22:04.632Z,5.4
2022-11-14T07:27:56.162Z,5.5
2022-11-14T07:33:48.231Z,5.5
2022-11-14T07:39:40.632Z,5.5
2022-11-14T07:45:34.073Z,5.6
2022-11-14T07:51:32.439Z,5.7
2022-11-14T07:57:29.533Z,5.8
2022-11-14T08:03:33.771Z,5.8
2022-11-14T08:09:34.235Z,5.9
2022-11-14T08:15:25.893Z,6
2022-11-14T08:21:15.684Z,6
2022-11-14T08:27:06.316Z,6.1
2022-11-14T08:32:57.006Z,6.1
2022-11-14T08:38:52.339Z,6.1
2022-11-14T08:44:52.920Z,6.3
2022-11-14T08:50:47.883Z,6.3
2022-11-14T08:56:40.393Z,6.4
2022-11-14T09:02:36.111Z,6.4
2022-11-14T09:08:29.653Z,6.6
2022-11-14T09:14:25.655Z,6.5
2022-11-14T09:20:18.253Z,6.6
2022-11-14T09:26:23.624Z,6.6
2022-11-14T09:32:27.059Z,6.6
2022-11-14T09:38:22.936Z,6.7
2022-11-14T09:44:21.070Z,6.7
2022-11-14T09:50:13.372Z,6.7
2022-11-14T09:56:13.066Z,6.8
2022-11-14T10:02:08.010Z,6.8
2022-11-14T10:07:59.814Z,6.9
2022-11-14T10:13:53.564Z,7
2022-11-14T10:19:45.160Z,7.1
2022-11-14T10:25:40.919Z,7.1
2022-11-14T10:31:39.204Z,7.1
2022-11-14T10:37:30.464Z,7.2
2022-11-14T10:43:23.144Z,7.2
2022-11-14T10:49:15.662Z,7.3
2022-11-14T10:55:07.804Z,7.3
2022-11-14T11:00:59.431Z,7.3
2022-11-14T11:06:51.759Z,7.4
2022-11-14T11:12:43.894Z,7.3
2022-11-14T11:18:50.705Z,7.4
2022-11-14T11:24:45.838Z,7.5
2022-11-14T12:04:11.681Z,7.9
2022-11-14T12:10:18.383Z,7.9
2022-11-14T12:22:23.185Z,7.9
2022-11-14T12:28:16.071Z,8
2022-11-14T12:34:13.870Z,8
2022-11-14T12:40:09.476Z,8.1
2022-11-14T12:46:07.946Z,8.1
2022-11-14T12:52:16.859Z,8.1
2022-11-14T12:58:11.769Z,8.1
2022-11-14T13:04:08.567Z,8.1
2022-11-14T13:10:09.267Z,8
2022-11-14T13:16:03.958Z,8.1
2022-11-14T13:21:58.750Z,8.1
2022-11-14T13:28:06.859Z,8.1
2022-11-14T13:34:14.392Z,8.1
2022-11-14T13:40:08.016Z,8.1
2022-11-14T13:46:14.992Z,8.1
2022-11-14T13:52:33.712Z,8.2
2022-11-14T14:04:59.074Z,8.2
2022-11-14T14:10:56.484Z,8.2
2022-11-14T14:17:15.151Z,8.3
2022-11-14T14:23:21.597Z,8.3
2022-11-14T14:29:23.064Z,8.3
2022-11-14T14:35:35.780Z,8.3
2022-11-14T14:48:46.133Z,8.3
2022-11-14T14:54:54.282Z,8.4
2022-11-14T15:00:57.800Z,8.3
2022-11-14T15:07:00.228Z,8.4
2022-11-14T15:12:56.443Z,8.4
2022-11-14T15:18:49.632Z,8.4
2022-11-14T15:24:43.136Z,8.3
2022-11-14T15:30:43.166Z,8.4
2022-11-14T15:37:48.560Z,8.3
2022-11-14T15:44:02.353Z,8.4
2022-11-14T15:49:57.689Z,8.3
2022-11-14T15:55:52.028Z,8.4
2022-11-14T16:07:49.247Z,8.4
2022-11-14T16:13:42.149Z,8.4
2022-11-14T16:19:39.512Z,8.4
2022-11-14T16:25:43.581Z,8.4
2022-11-14T16:31:46.940Z,8.4
2022-11-14T16:37:39.408Z,8.4
2022-11-14T16:43:31.003Z,8.4
2022-11-14T16:49:24.924Z,8.4
2022-11-14T16:55:18.325Z,8.4
2022-11-14T17:01:21.318Z,8.4
2022-11-14T17:07:23.061Z,8.4
2022-11-14T17:13:21.701Z,8.4
2022-11-14T17:19:15.653Z,8.4
2022-11-14T17:25:06.100Z,8.3
2022-11-14T17:31:07.318Z,8.3
2022-11-14T17:37:00.867Z,8.3
2022-11-14T17:42:54.583Z,8.3
2022-11-14T17:48:56.137Z,8.2
2022-11-14T17:54:47.838Z,8.2
2022-11-14T18:00:44.676Z,8.2
2022-11-14T18:06:41.028Z,8.1
2022-11-14T18:12:45.708Z,8.1
2022-11-14T18:18:40.826Z,8.1
2022-11-14T18:24:33.561Z,8
2022-11-14T18:30:40.714Z,8
2022-11-14T18:42:50.672Z,7.9
2022-11-14T18:48:51.219Z,7.9
2022-11-14T19:00:59.694Z,7.9
2022-11-14T19:06:56.538Z,7.9
2022-11-14T19:13:00.855Z,8
2022-11-14T19:25:06.434Z,8
2022-11-14T19:31:03.725Z,8
2022-11-14T19:37:02.147Z,8.1
2022-11-14T19:42:55.882Z,8.1
2022-11-14T19:48:56.864Z,8.2
2022-11-14T19:55:05.937Z,8.3
2022-11-14T20:00:59.273Z,8.4
2022-11-14T20:06:53.999Z,8.4
2022-11-14T20:13:00.843Z,8.5
2022-11-14T20:18:58.972Z,8.6
2022-11-14T20:24:55.458Z,8.6
2022-11-14T20:30:50.272Z,8.6
2022-11-14T20:37:09.063Z,8.7
2022-11-14T20:43:03.339Z,8.8
2022-11-14T20:55:33.559Z,9
2022-11-14T21:01:28.247Z,9.1
2022-11-14T21:20:00.154Z,9.2
2022-11-14T21:25:53.112Z,9.3
2022-11-14T21:31:48.592Z,9.4
2022-11-14T21:37:38.586Z,9.4
2022-11-14T21:43:35.287Z,9.4
2022-11-14T21:49:37.659Z,9.4
2022-11-14T22:01:37.507Z,9.5
2022-11-14T22:07:29.439Z,9.6
2022-11-14T22:13:21.072Z,9.6
2022-11-14T22:19:13.077Z,9.7
2022-11-14T22:25:03.380Z,9.8
2022-11-14T22:30:54.171Z,9.9
2022-11-14T22:36:45.296Z,10
2022-11-14T22:42:43.535Z,10
2022-11-14T22:48:40.941Z,10.1
2022-11-14T22:54:35.932Z,10.2
2022-11-14T23:00:30.266Z,10.3
2022-11-14T23:06:35.665Z,10.3
2022-11-14T23:12:52.630Z,10.3
2022-11-14T23:18:44.359Z,10.4
2022-11-14T23:24:36.409Z,10.4
2022-11-14T23:30:27.497Z,10.4
2022-11-14T23:36:25.131Z,10.4
2022-11-14T23:42:18.563Z,10.4
2022-11-14T23:48:12.313Z,10.5
2022-11-14T23:54:21.777Z,10.6
